»·PEaware :: N224LW KMRY-KPVF

N224LW :: KMRY-KPVF

FLIGHT INFORMATION

Flight Status: Arrived
Operator: Privately registered:
United States
More flights under this callsign
Pilot: Rod T. (6553)
Aircraft: CIRRUS SR-22 TURBO
(S22T)
More flights by this aircraft type
Origin: KMRY Monterey Peninsula
United States
Destination: KPVF Placerville
United States
More flights between these airports :: More routes between these airports
Route: +MRY4 SNS V111 MOD V113 LIN V338 MUREQ
File this flight plan on PilotEdge
Remarks:
Altitude:
(Current/Filed)
7,000ft
Speed:
(Current/Filed)
180kts
Departed: 26-Nov-17 05:27 PM
Arrived: 26-Nov-17 06:17 PM
Distance/Time
Traveled:
138nm/0:50
Distance/Time
To Go:
Arrived

Flight Plot

Page will automatically refresh every two minutes.

Flight plan parsing failed; only flown route is shown


Map Options




Map Legend


Flown Route
Filed Route
Departure Airport
Arrival Airport
Navaid (VOR, NDB)
Fix

Horizontal Profiles

Position Reports

Time Latitude Longitude Heading Altitude Ground
Speed
26-Nov-17 17:15 36.588802 -121.856955 0 257ft 0kts
26-Nov-17 17:16 36.588802 -121.856955 360 257ft 0kts
26-Nov-17 17:17 36.588802 -121.856955 360 257ft 0kts
26-Nov-17 17:18 36.588802 -121.856955 360 257ft 0kts
26-Nov-17 17:19 36.588802 -121.856955 360 257ft 0kts
26-Nov-17 17:20 36.588802 -121.856955 0 257ft 0kts
26-Nov-17 17:21 36.588802 -121.856955 0 257ft 0kts
26-Nov-17 17:22 36.588802 -121.856955 0 257ft 0kts
26-Nov-17 17:23 36.589462 -121.854850 87 257ft 15kts
26-Nov-17 17:24 36.588377 -121.850952 112 257ft 14kts
26-Nov-17 17:25 36.586225 -121.844970 114 257ft 19kts
26-Nov-17 17:26 36.584154 -121.838843 112 257ft 19kts
26-Nov-17 17:27 36.582759 -121.836090 57 257ft 0kts
26-Nov-17 17:28 36.582759 -121.836090 57 257ft 0kts
26-Nov-17 17:29 36.582759 -121.836090 57 257ft 0kts
26-Nov-17 17:30 36.582765 -121.836078 59 257ft 0kts
26-Nov-17 17:31 36.582847 -121.834656 90 257ft 8kts
26-Nov-17 17:32 36.589444 -121.852009 288 724ft 108kts
26-Nov-17 17:33 36.614781 -121.871402 341 2155ft 128kts
26-Nov-17 17:34 36.644345 -121.872958 42 3253ft 152kts
26-Nov-17 17:35 36.653342 -121.817106 95 4959ft 146kts
26-Nov-17 17:36 36.656497 -121.766106 95 6386ft 151kts
26-Nov-17 17:37 36.659415 -121.719178 95 6968ft 185kts
26-Nov-17 17:38 36.663414 -121.649275 93 6962ft 202kts
26-Nov-17 17:39 36.676407 -121.594335 30 6962ft 217kts
26-Nov-17 17:40 36.729936 -121.558734 25 6962ft 219kts
26-Nov-17 17:41 36.792714 -121.517195 25 6963ft 219kts
26-Nov-17 17:42 36.837395 -121.487573 25 6988ft 219kts
26-Nov-17 17:43 36.891099 -121.451920 25 6991ft 219kts
26-Nov-17 17:44 36.953992 -121.410096 25 6991ft 220kts
26-Nov-17 17:45 36.999058 -121.380075 25 6992ft 220kts
26-Nov-17 17:46 37.052863 -121.344199 26 6989ft 220kts
26-Nov-17 17:47 37.106476 -121.308389 26 7028ft 218kts
26-Nov-17 17:48 37.159929 -121.272593 26 7027ft 218kts
26-Nov-17 17:49 37.213082 -121.236966 26 6997ft 220kts
26-Nov-17 17:50 37.267183 -121.200653 26 6974ft 219kts
26-Nov-17 17:51 37.320699 -121.164660 26 6975ft 219kts
26-Nov-17 17:52 37.374432 -121.128460 26 6976ft 219kts
26-Nov-17 17:53 37.427903 -121.092386 26 6976ft 219kts
26-Nov-17 17:54 37.481508 -121.056167 26 6977ft 219kts
26-Nov-17 17:55 37.535053 -121.019913 26 6977ft 219kts
26-Nov-17 17:56 37.588789 -120.983478 26 6978ft 219kts
26-Nov-17 17:57 37.643967 -120.957437 350 6980ft 210kts
26-Nov-17 17:58 37.701921 -120.962845 348 6979ft 209kts
26-Nov-17 17:59 37.759941 -120.968765 348 6979ft 209kts
26-Nov-17 18:00 37.817877 -120.974709 348 6979ft 209kts
26-Nov-17 18:01 37.875862 -120.980671 348 6980ft 209kts
26-Nov-17 18:02 37.933891 -120.986646 348 6980ft 209kts
26-Nov-17 18:03 37.991863 -120.992626 348 6981ft 209kts
26-Nov-17 18:04 38.049788 -120.998589 348 7008ft 209kts
26-Nov-17 18:05 38.107503 -120.989567 13 7004ft 217kts
26-Nov-17 18:06 38.164339 -120.967455 13 7003ft 215kts
26-Nov-17 18:07 38.221103 -120.945174 12 7002ft 213kts
26-Nov-17 18:08 38.277629 -120.923125 12 7003ft 213kts
26-Nov-17 18:09 38.334032 -120.901098 12 7003ft 213kts
26-Nov-17 18:10 38.390591 -120.878966 12 7003ft 209kts
26-Nov-17 18:11 38.443734 -120.857998 12 6908ft 200kts
26-Nov-17 18:12 38.490624 -120.865981 285 6114ft 179kts
26-Nov-17 18:13 38.505278 -120.929274 284 5318ft 189kts
26-Nov-17 18:14 38.528120 -120.985881 347 4610ft 189kts
26-Nov-17 18:15 38.576367 -120.986788 359 4149ft 185kts
26-Nov-17 18:16 38.626055 -120.986060 20 3998ft 171kts
26-Nov-17 18:17 38.650705 -120.937723 64 4003ft 163kts
26-Nov-17 18:18 38.671432 -120.886385 64 3999ft 150kts
26-Nov-17 18:19 38.689041 -120.843750 67 4002ft 130kts
26-Nov-17 18:20 38.704172 -120.804292 65 3382ft 117kts
26-Nov-17 18:21 38.717701 -120.769766 72 2803ft 101kts
26-Nov-17 18:22 38.726537 -120.747578 28 2586ft 19kts
26-Nov-17 18:23 38.725985 -120.750059 245 2586ft 0kts
26-Nov-17 18:24 38.725985 -120.750060 244 2586ft 0kts
26-Nov-17 18:25 38.725843 -120.750425 241 2586ft 12kts
26-Nov-17 18:26 38.724265 -120.755323 240 2586ft 13kts
26-Nov-17 18:27 38.724061 -120.755751 199 2586ft 0kts

Navigation Log

Ident Type
Flight plan parsing failed, navigation log unavailable